Time;durP1;ratioP1;P1;durP2;ratioP2;P2;SDS_P1;SDS_P2;PMS_P1;PMS_P2;Temp;Humidity;BMP_temperature;BMP_pressure;BME280_temperature;BME280_humidity;BME280_pressure;Samples;Min_cycle;Max_cycle;Signal;HPM_P1;HPM_P2
2022/07/29 00:01:22;;;;;;;12.13;4.43;;;17.60;1.00;;;;;;6213426;23;20393;-83
2022/07/29 00:03:50;;;;;;;7.70;3.57;;;17.60;1.00;;;;;;6216341;23;20513;-84
2022/07/29 00:06:24;;;;;;;10.30;4.17;;;17.50;1.00;;;;;;6218274;23;20405;-85
2022/07/29 00:08:51;;;;;;;9.97;4.50;;;17.50;1.00;;;;;;6217352;23;20407;-81
2022/07/29 00:11:25;;;;;;;11.90;4.23;;;17.50;1.00;;;;;;6210297;23;20401;-82
2022/07/29 00:13:52;;;;;;;9.53;4.23;;;17.50;1.00;;;;;;6212541;23;20893;-82
2022/07/29 00:16:22;;;;;;;9.20;3.80;;;17.50;1.00;;;;;;6211812;23;20474;-82
2022/07/29 00:18:51;;;;;;;8.17;3.70;;;17.40;1.00;;;;;;6214331;23;21045;-84
2022/07/29 00:21:22;;;;;;;8.93;4.63;;;17.40;1.00;;;;;;6218072;23;20405;-83
2022/07/29 00:23:48;;;;;;;8.43;4.50;;;17.40;1.00;;;;;;6216124;23;20504;-82
2022/07/29 00:26:15;;;;;;;9.00;4.40;;;17.40;1.00;;;;;;6211425;23;20430;-82
2022/07/29 00:28:44;;;;;;;8.63;4.30;;;17.30;1.00;;;;;;6208491;23;21229;-81
2022/07/29 00:31:13;;;;;;;10.40;4.30;;;17.30;1.00;;;;;;6214900;22;20496;-81
2022/07/29 00:33:45;;;;;;;9.20;4.40;;;17.30;1.00;;;;;;6255505;22;20826;-83
2022/07/29 00:36:13;;;;;;;10.37;5.00;;;17.20;1.00;;;;;;6260369;22;20428;-83
2022/07/29 00:38:45;;;;;;;8.73;4.10;;;17.20;1.00;;;;;;6266930;22;20384;-82
2022/07/29 00:41:13;;;;;;;9.27;4.37;;;17.20;1.00;;;;;;6264367;22;20396;-83
2022/07/29 00:43:42;;;;;;;10.90;4.60;;;17.20;1.00;;;;;;6264092;22;20455;-82
2022/07/29 00:46:09;;;;;;;9.10;4.30;;;17.10;1.00;;;;;;6255834;22;20862;-82
2022/07/29 00:48:42;;;;;;;10.00;4.70;;;17.10;1.00;;;;;;6254643;22;20499;-82
2022/07/29 00:51:10;;;;;;;8.90;3.90;;;17.10;1.00;;;;;;6230533;22;20894;-83
2022/07/29 00:53:43;;;;;;;9.93;4.70;;;17.00;1.00;;;;;;6253439;22;20424;-82
2022/07/29 00:56:10;;;;;;;10.97;4.50;;;17.00;1.00;;;;;;6252276;22;21063;-82
2022/07/29 00:58:47;;;;;;;11.63;5.07;;;17.00;1.00;;;;;;6251705;22;20412;-83
2022/07/29 01:01:14;;;;;;;10.43;4.13;;;17.00;1.00;;;;;;6252352;22;20420;-81
2022/07/29 01:03:42;;;;;;;10.30;4.43;;;16.90;1.00;;;;;;6254589;22;20455;-82
2022/07/29 01:06:10;;;;;;;9.30;4.63;;;16.90;1.00;;;;;;6252773;22;20436;-81
2022/07/29 01:08:45;;;;;;;8.60;4.80;;;16.90;1.00;;;;;;6254438;22;20471;-82
2022/07/29 01:11:14;;;;;;;8.50;4.53;;;16.90;1.00;;;;;;6256601;22;20415;-85
2022/07/29 01:13:45;;;;;;;8.37;4.03;;;16.80;1.00;;;;;;6259118;22;20392;-83
2022/07/29 01:16:22;;;;;;;11.77;4.30;;;16.80;1.00;;;;;;6253075;22;21181;-83
2022/07/29 01:18:55;;;;;;;11.37;3.93;;;16.90;1.00;;;;;;6254466;22;20418;-82
2022/07/29 01:21:49;;;;;;;12.07;4.80;;;16.80;1.00;;;;;;6253467;22;20464;-84
2022/07/29 01:24:42;;;;;;;8.90;4.77;;;16.80;1.00;;;;;;6253112;22;20515;-83
2022/07/29 01:27:30;;;;;;;7.80;4.37;;;16.80;1.00;;;;;;6247194;22;20619;-82
2022/07/29 01:30:03;;;;;;;10.40;4.37;;;16.70;1.00;;;;;;6254894;22;20436;-82
2022/07/29 01:32:35;;;;;;;8.30;4.90;;;16.70;1.00;;;;;;6211794;23;20841;-82
2022/07/29 01:35:05;;;;;;;9.27;4.67;;;16.60;1.00;;;;;;6224173;23;20423;-82
2022/07/29 01:37:45;;;;;;;9.30;4.10;;;16.60;1.00;;;;;;6223327;23;20499;-82
2022/07/29 01:40:23;;;;;;;8.87;4.20;;;16.60;1.00;;;;;;6223787;23;20440;-82
2022/07/29 01:42:55;;;;;;;9.23;4.53;;;16.60;1.00;;;;;;6225657;23;20417;-82
2022/07/29 01:45:35;;;;;;;9.70;4.10;;;16.50;1.00;;;;;;6224826;23;21227;-83
2022/07/29 01:48:07;;;;;;;9.57;4.00;;;16.50;1.00;;;;;;6225090;23;20433;-82
2022/07/29 01:50:42;;;;;;;10.83;4.00;;;16.50;1.00;;;;;;6223730;23;20479;-84
2022/07/29 01:53:11;;;;;;;8.03;4.27;;;16.50;1.00;;;;;;6225322;22;21169;-84
2022/07/29 01:55:47;;;;;;;11.00;4.53;;;16.50;1.00;;;;;;6226593;23;20412;-85
2022/07/29 01:58:16;;;;;;;9.63;4.47;;;16.50;1.00;;;;;;6225239;23;20973;-83
2022/07/29 02:00:47;;;;;;;8.60;4.27;;;16.40;1.00;;;;;;6215983;23;20956;-83
2022/07/29 02:03:19;;;;;;;9.30;4.57;;;16.40;1.00;;;;;;6213467;23;20428;-83
2022/07/29 02:05:51;;;;;;;9.90;4.03;;;16.40;1.00;;;;;;6225842;23;20389;-82
2022/07/29 02:08:25;;;;;;;9.80;4.70;;;16.40;1.00;;;;;;6226197;23;20413;-85
2022/07/29 02:10:53;;;;;;;9.23;3.70;;;16.40;1.00;;;;;;6226645;23;20436;-82
2022/07/29 02:13:25;;;;;;;8.20;4.27;;;16.30;1.00;;;;;;6225456;23;20413;-83
2022/07/29 02:16:03;;;;;;;8.30;4.40;;;16.30;1.00;;;;;;6226828;23;20519;-83
2022/07/29 02:18:31;;;;;;;9.87;4.27;;;16.30;1.00;;;;;;6192729;23;20429;-83
2022/07/29 02:21:03;;;;;;;9.93;4.63;;;16.30;1.00;;;;;;6218167;23;20395;-83
2022/07/29 02:23:33;;;;;;;9.53;4.10;;;16.30;1.00;;;;;;6225547;23;20934;-84
2022/07/29 02:26:04;;;;;;;10.33;4.50;;;16.30;1.00;;;;;;6225705;23;20412;-83
2022/07/29 02:28:31;;;;;;;9.30;3.57;;;16.30;1.00;;;;;;6224747;23;20428;-84
2022/07/29 02:31:04;;;;;;;11.10;3.90;;;16.30;1.00;;;;;;6224640;23;20477;-83
2022/07/29 02:33:32;;;;;;;10.33;4.97;;;16.30;1.00;;;;;;6198779;23;20668;-82
2022/07/29 02:36:03;;;;;;;8.80;4.07;;;16.30;1.00;;;;;;6216134;23;20404;-82
2022/07/29 02:41:25;;;;;;;10.80;4.80;;;16.30;1.00;;;;;;6210816;23;20549;-84
2022/07/29 02:44:01;;;;;;;9.63;4.10;;;16.30;1.00;;;;;;6216713;22;20508;-81
2022/07/29 02:46:33;;;;;;;9.00;4.47;;;16.30;1.00;;;;;;6218367;23;20941;-81
2022/07/29 02:49:09;;;;;;;8.97;4.50;;;16.30;1.00;;;;;;6219476;23;20480;-82
2022/07/29 02:51:45;;;;;;;12.77;4.40;;;16.30;1.00;;;;;;6212330;23;20857;-82
2022/07/29 02:54:23;;;;;;;10.03;4.60;;;16.30;1.00;;;;;;6211466;23;20508;-84
2022/07/29 02:56:55;;;;;;;8.90;4.40;;;16.30;1.00;;;;;;6217283;23;20425;-84
2022/07/29 02:59:27;;;;;;;9.13;4.33;;;16.30;1.00;;;;;;6221949;23;20452;-81
2022/07/29 03:02:02;;;;;;;10.17;4.57;;;16.30;1.00;;;;;;6219865;23;20373;-84
2022/07/29 03:04:31;;;;;;;9.20;4.20;;;16.30;1.00;;;;;;6211286;23;20444;-82
2022/07/29 03:07:03;;;;;;;9.50;4.30;;;16.40;1.00;;;;;;6215238;23;20396;-84
2022/07/29 03:09:31;;;;;;;10.37;4.23;;;16.30;1.00;;;;;;6219489;23;20433;-84
2022/07/29 03:12:06;;;;;;;8.43;4.10;;;16.40;1.00;;;;;;6218566;23;20460;-84
2022/07/29 03:14:33;;;;;;;9.30;3.70;;;16.40;1.00;;;;;;6209731;23;20429;-83
2022/07/29 03:17:05;;;;;;;8.70;4.27;;;16.40;1.00;;;;;;6215554;23;20442;-83
2022/07/29 03:19:32;;;;;;;8.10;3.97;;;16.40;1.00;;;;;;6218848;23;20782;-83
2022/07/29 03:22:03;;;;;;;9.53;4.33;;;16.40;1.00;;;;;;6218437;23;20437;-82
2022/07/29 03:24:34;;;;;;;9.60;4.30;;;16.50;1.00;;;;;;6219508;23;20441;-85
2022/07/29 03:27:03;;;;;;;8.73;4.60;;;16.40;1.00;;;;;;6218039;23;20421;-82
2022/07/29 03:29:30;;;;;;;9.17;3.70;;;16.50;1.00;;;;;;6210020;23;20399;-83
2022/07/29 03:31:57;;;;;;;10.83;4.40;;;16.50;1.00;;;;;;6224595;22;20479;-82
2022/07/29 03:34:25;;;;;;;10.67;5.03;;;16.50;1.00;;;;;;6247048;22;20963;-83
2022/07/29 03:36:55;;;;;;;10.60;4.87;;;16.50;1.00;;;;;;6250966;22;20491;-82
2022/07/29 03:39:26;;;;;;;8.90;4.50;;;16.50;1.00;;;;;;6247556;22;20840;-83
2022/07/29 03:41:56;;;;;;;11.33;4.23;;;16.40;1.00;;;;;;6248097;22;20539;-82
2022/07/29 03:44:24;;;;;;;10.33;4.00;;;16.50;1.00;;;;;;6250524;22;20451;-84
2022/07/29 03:46:55;;;;;;;11.73;4.70;;;16.40;1.00;;;;;;6257244;22;20419;-82
2022/07/29 03:49:24;;;;;;;10.03;4.73;;;16.40;1.00;;;;;;6253405;22;21031;-83
2022/07/29 03:51:55;;;;;;;11.83;4.67;;;16.40;1.00;;;;;;6256149;22;20388;-82
2022/07/29 03:54:22;;;;;;;10.30;4.70;;;16.30;1.00;;;;;;6252742;22;20470;-82
2022/07/29 03:56:54;;;;;;;10.37;4.43;;;16.30;1.00;;;;;;6252801;22;20444;-82
2022/07/29 03:59:23;;;;;;;11.70;5.20;;;16.30;1.00;;;;;;6252821;22;20432;-82
2022/07/29 04:01:53;;;;;;;11.07;4.30;;;16.30;1.00;;;;;;6254175;22;20512;-82
2022/07/29 04:04:21;;;;;;;12.70;5.77;;;16.40;1.00;;;;;;6252348;22;20502;-82
2022/07/29 04:06:53;;;;;;;10.10;5.03;;;16.40;1.00;;;;;;6255089;22;20831;-81
2022/07/29 04:09:21;;;;;;;13.37;5.27;;;16.50;1.00;;;;;;6255871;22;20412;-82
2022/07/29 04:11:52;;;;;;;8.40;4.67;;;16.50;1.00;;;;;;6253328;22;20467;-82
2022/07/29 04:14:20;;;;;;;11.00;5.27;;;16.50;1.00;;;;;;6253302;22;20501;-83
2022/07/29 04:16:56;;;;;;;10.73;4.40;;;16.50;1.00;;;;;;6254610;22;20512;-82
2022/07/29 04:19:23;;;;;;;9.80;4.60;;;16.60;1.00;;;;;;6251836;22;20400;-82
2022/07/29 04:21:53;;;;;;;10.60;5.07;;;16.70;1.00;;;;;;6255576;22;20388;-82
2022/07/29 04:24:21;;;;;;;8.47;4.07;;;16.70;1.00;;;;;;6253991;22;20423;-84
2022/07/29 04:26:54;;;;;;;11.97;5.57;;;16.80;1.00;;;;;;6255252;22;20917;-82
2022/07/29 04:29:21;;;;;;;10.27;4.40;;;16.80;1.00;;;;;;6253014;22;20494;-81
2022/07/29 04:31:52;;;;;;;8.37;3.83;;;16.80;1.00;;;;;;6241893;22;20547;-82
2022/07/29 04:34:19;;;;;;;11.00;4.37;;;16.80;1.00;;;;;;6223917;23;20411;-82
2022/07/29 04:36:46;;;;;;;14.90;4.93;;;16.80;1.00;;;;;;6224187;23;20428;-82
2022/07/29 04:39:13;;;;;;;12.87;4.83;;;16.90;1.00;;;;;;6219574;23;20452;-85
2022/07/29 04:41:41;;;;;;;10.63;4.90;;;16.80;1.00;;;;;;6215791;23;20412;-85
2022/07/29 04:44:08;;;;;;;11.30;5.93;;;16.90;1.00;;;;;;6215031;23;20472;-84
2022/07/29 04:46:36;;;;;;;9.97;4.77;;;17.00;1.00;;;;;;6217528;23;21130;-85
2022/07/29 04:49:03;;;;;;;9.23;4.20;;;17.00;1.00;;;;;;6216731;23;20428;-83
2022/07/29 04:51:30;;;;;;;9.40;4.40;;;17.00;1.00;;;;;;6216005;23;20480;-85
2022/07/29 04:53:57;;;;;;;9.50;4.43;;;17.10;1.00;;;;;;6217935;23;20421;-85
2022/07/29 04:56:23;;;;;;;8.67;3.70;;;17.10;1.00;;;;;;6215023;23;20429;-85
2022/07/29 04:58:52;;;;;;;9.87;4.93;;;17.10;1.00;;;;;;6216874;23;20429;-85
2022/07/29 05:01:19;;;;;;;8.17;4.00;;;17.20;1.00;;;;;;6209969;23;20760;-83
2022/07/29 05:03:46;;;;;;;10.93;4.50;;;17.20;1.00;;;;;;6217966;23;20530;-85
2022/07/29 05:06:13;;;;;;;8.47;4.23;;;17.20;1.00;;;;;;6215770;23;20455;-84
2022/07/29 05:08:39;;;;;;;9.37;4.00;;;17.30;1.00;;;;;;6217547;23;20437;-84
2022/07/29 05:11:06;;;;;;;7.87;3.70;;;17.30;1.00;;;;;;6216764;23;20910;-84
2022/07/29 05:13:34;;;;;;;11.90;6.13;;;17.30;1.00;;;;;;6216744;23;20412;-80
2022/07/29 05:16:03;;;;;;;11.80;4.20;;;17.40;1.00;;;;;;6216251;23;20431;-81
2022/07/29 05:18:33;;;;;;;9.40;4.60;;;17.40;1.00;;;;;;6215873;23;20424;-81
2022/07/29 05:20:59;;;;;;;10.80;4.57;;;17.40;1.00;;;;;;6216178;23;20496;-80
2022/07/29 05:23:26;;;;;;;8.33;4.10;;;17.60;1.00;;;;;;6213905;23;20464;-80
2022/07/29 05:25:53;;;;;;;10.20;4.20;;;17.70;1.00;;;;;;6218506;23;20511;-81
2022/07/29 05:28:20;;;;;;;9.87;4.20;;;17.70;1.00;;;;;;6215788;23;20436;-80
2022/07/29 05:30:48;;;;;;;12.47;4.90;;;17.90;1.00;;;;;;6218386;23;20921;-80
2022/07/29 05:33:16;;;;;;;8.83;4.30;;;17.90;1.00;;;;;;6243696;22;20443;-82
2022/07/29 05:35:43;;;;;;;8.37;4.10;;;17.90;1.00;;;;;;6248645;22;20511;-82
2022/07/29 05:38:09;;;;;;;8.27;3.90;;;17.90;1.00;;;;;;6253299;22;20877;-85
2022/07/29 05:40:36;;;;;;;9.95;5.10;;;17.90;1.00;;;;;;6251709;22;20395;-84
2022/07/29 05:43:03;;;;;;;12.13;5.07;;;18.00;1.00;;;;;;6254836;22;20408;-84
2022/07/29 05:45:30;;;;;;;9.83;4.23;;;18.00;1.00;;;;;;6255560;22;20483;-85
2022/07/29 05:48:00;;;;;;;9.60;4.10;;;18.00;1.00;;;;;;6256686;22;20514;-84
2022/07/29 05:50:31;;;;;;;8.63;4.20;;;18.10;1.00;;;;;;6259229;22;20388;-84
2022/07/29 05:53:03;;;;;;;8.27;4.07;;;18.10;1.00;;;;;;6262748;22;20871;-85
2022/07/29 05:55:33;;;;;;;9.67;4.20;;;18.20;1.00;;;;;;6258394;22;20466;-79
2022/07/29 05:58:04;;;;;;;9.40;4.13;;;18.30;1.00;;;;;;6258169;22;20424;-78
2022/07/29 06:00:34;;;;;;;11.60;4.80;;;18.40;1.00;;;;;;6259587;22;20400;-84
2022/07/29 06:03:01;;;;;;;11.10;4.67;;;18.50;1.00;;;;;;6261056;22;20479;-78
2022/07/29 06:05:32;;;;;;;10.50;4.20;;;18.60;1.00;;;;;;6257697;22;20529;-81
2022/07/29 06:08:00;;;;;;;11.17;4.40;;;18.70;1.00;;;;;;6263219;22;20449;-81
2022/07/29 06:10:31;;;;;;;8.83;4.40;;;18.70;1.00;;;;;;6259988;22;20416;-83
2022/07/29 06:12:59;;;;;;;9.33;4.40;;;18.80;1.00;;;;;;6260919;22;20416;-86
2022/07/29 06:15:26;;;;;;;10.03;4.17;;;18.90;1.00;;;;;;6258583;22;20388;-83
2022/07/29 06:17:54;;;;;;;9.00;4.10;;;19.00;1.00;;;;;;6261614;22;20399;-84
2022/07/29 06:20:22;;;;;;;15.60;4.10;;;19.20;1.00;;;;;;6257396;22;21212;-81
2022/07/29 06:22:56;;;;;;;9.17;3.77;;;19.20;1.00;;;;;;6256739;22;20394;-85
2022/07/29 06:25:24;;;;;;;11.33;8.53;;;19.50;1.00;;;;;;6257908;22;20410;-86
2022/07/29 06:27:55;;;;;;;9.43;4.40;;;19.60;1.00;;;;;;6259932;22;20396;-84
2022/07/29 06:30:22;;;;;;;8.93;3.90;;;19.80;1.00;;;;;;6256780;22;20416;-80
2022/07/29 06:32:54;;;;;;;8.60;4.50;;;20.00;1.00;;;;;;6256820;22;20459;-84
2022/07/29 06:35:21;;;;;;;9.33;3.50;;;20.10;1.00;;;;;;6258757;22;20420;-85
2022/07/29 06:37:52;;;;;;;10.07;4.37;;;20.20;1.00;;;;;;6258362;22;21009;-85
2022/07/29 06:43:06;;;;;;;9.60;4.37;;;20.40;1.00;;;;;;6257615;22;20424;-82
2022/07/29 06:45:35;;;;;;;12.40;4.10;;;20.50;1.00;;;;;;6256323;22;20427;-84
2022/07/29 06:48:02;;;;;;;10.30;4.20;;;20.70;1.00;;;;;;6257425;22;20585;-83
2022/07/29 06:50:33;;;;;;;9.57;4.37;;;20.80;1.00;;;;;;6255015;22;20491;-85
2022/07/29 06:53:00;;;;;;;10.70;3.27;;;20.80;1.00;;;;;;6255891;22;20416;-79
2022/07/29 06:55:34;;;;;;;8.93;3.83;;;20.70;1.00;;;;;;6254128;22;20494;-81
2022/07/29 06:58:01;;;;;;;8.70;3.23;;;20.70;1.00;;;;;;6256675;22;20407;-82
2022/07/29 07:00:37;;;;;;;9.80;4.07;;;20.70;1.00;;;;;;6252866;22;20419;-77
2022/07/29 07:03:04;;;;;;;10.30;4.93;;;20.70;1.00;;;;;;6256107;22;20474;-78
2022/07/29 07:05:34;;;;;;;10.10;4.20;;;20.70;1.00;;;;;;6252468;22;20388;-79
2022/07/29 07:08:03;;;;;;;11.87;4.97;;;20.70;1.00;;;;;;6254280;22;20431;-79
2022/07/29 07:10:33;;;;;;;8.73;3.23;;;20.60;1.00;;;;;;6252194;22;20503;-80
2022/07/29 07:13:01;;;;;;;9.90;3.73;;;20.70;1.00;;;;;;6254314;22;20392;-81
2022/07/29 07:15:37;;;;;;;8.53;3.57;;;20.70;1.00;;;;;;6253821;22;20420;-82
2022/07/29 07:18:12;;;;;;;8.53;3.60;;;20.80;1.00;;;;;;6255558;22;20577;-79
2022/07/29 07:20:39;;;;;;;8.90;3.50;;;20.90;1.00;;;;;;6254146;22;20427;-80
2022/07/29 07:23:14;;;;;;;11.20;3.97;;;21.20;1.00;;;;;;6253135;22;20426;-79
2022/07/29 07:25:44;;;;;;;8.13;3.47;;;21.40;1.00;;;;;;6254774;22;20428;-78
2022/07/29 07:28:16;;;;;;;10.00;4.97;;;21.50;1.00;;;;;;6255096;22;20471;-78
2022/07/29 07:30:45;;;;;;;8.83;3.90;;;21.40;1.00;;;;;;6252174;22;20503;-79
2022/07/29 07:33:14;;;;;;;9.43;3.93;;;21.40;1.00;;;;;;6253727;22;20403;-78
2022/07/29 07:35:41;;;;;;;8.70;3.20;;;21.50;1.00;;;;;;6253181;22;20454;-80
2022/07/29 07:38:13;;;;;;;10.20;4.33;;;21.50;1.00;;;;;;6252284;22;20440;-77
2022/07/29 07:40:40;;;;;;;10.77;3.63;;;21.50;1.00;;;;;;6253746;22;20443;-78
2022/07/29 07:43:16;;;;;;;9.40;4.33;;;21.50;1.00;;;;;;6227238;22;20420;-78
2022/07/29 07:45:45;;;;;;;8.23;3.40;;;21.50;1.00;;;;;;6251712;22;20493;-77
2022/07/29 07:48:14;;;;;;;10.03;3.73;;;21.70;1.00;;;;;;6252924;22;20423;-79
2022/07/29 07:50:43;;;;;;;8.53;3.27;;;21.80;1.00;;;;;;6249783;22;20412;-79
2022/07/29 07:53:14;;;;;;;14.37;4.50;;;21.90;1.00;;;;;;6250398;22;20403;-80
2022/07/29 07:55:42;;;;;;;9.73;3.50;;;22.10;1.00;;;;;;6253628;22;20470;-79
2022/07/29 07:58:10;;;;;;;8.47;3.83;;;22.20;1.00;;;;;;6248367;22;20424;-78
2022/07/29 08:00:37;;;;;;;8.23;3.43;;;22.40;1.00;;;;;;6233389;22;20475;-78
2022/07/29 08:03:05;;;;;;;8.43;3.57;;;22.50;1.00;;;;;;6247364;22;20471;-78
2022/07/29 08:05:32;;;;;;;6.83;2.63;;;22.50;1.00;;;;;;6246318;22;20464;-79
2022/07/29 08:08:04;;;;;;;7.60;3.50;;;22.60;1.00;;;;;;6247688;22;20575;-78
2022/07/29 08:13:15;;;;;;;8.03;2.80;;;22.90;1.00;;;;;;6245250;22;20941;-79
2022/07/29 08:15:45;;;;;;;6.50;2.80;;;23.30;1.00;;;;;;6248981;22;20398;-80
2022/07/29 08:18:14;;;;;;;8.00;3.10;;;23.70;1.00;;;;;;6250198;22;20432;-79
2022/07/29 08:20:41;;;;;;;10.03;3.03;;;23.80;1.00;;;;;;6253773;22;20419;-79
2022/07/29 08:23:14;;;;;;;12.97;4.80;;;24.00;1.00;;;;;;6238795;22;20464;-80
2022/07/29 08:25:41;;;;;;;8.23;3.30;;;24.30;1.00;;;;;;6255364;22;20424;-79
2022/07/29 08:28:13;;;;;;;6.83;2.80;;;24.50;1.00;;;;;;6252617;22;20423;-79
2022/07/29 08:30:40;;;;;;;9.00;3.77;;;24.50;1.00;;;;;;6254095;22;20661;-80
2022/07/29 08:33:07;;;;;;;7.90;2.70;;;24.50;1.00;;;;;;6226383;22;20430;-81
2022/07/29 08:35:37;;;;;;;11.30;3.60;;;24.70;1.00;;;;;;6259212;22;20404;-79
2022/07/29 08:38:04;;;;;;;8.17;3.30;;;24.80;1.00;;;;;;6255253;22;20434;-79
2022/07/29 08:40:34;;;;;;;8.67;3.33;;;24.90;1.00;;;;;;6256701;22;20456;-84
2022/07/29 08:43:06;;;;;;;8.50;2.77;;;25.10;1.00;;;;;;6259239;22;20542;-83
2022/07/29 08:45:44;;;;;;;8.03;2.83;;;25.20;1.00;;;;;;6258893;22;20390;-84
2022/07/29 08:48:15;;;;;;;6.63;2.77;;;25.30;1.00;;;;;;6257112;22;20396;-83
2022/07/29 08:50:45;;;;;;;7.37;3.30;;;25.20;1.00;;;;;;6258923;22;20434;-80
2022/07/29 08:53:16;;;;;;;7.93;3.23;;;25.00;1.00;;;;;;6257065;22;20408;-80
2022/07/29 08:55:44;;;;;;;6.57;2.70;;;25.30;1.00;;;;;;6257147;22;20463;-79
2022/07/29 08:58:15;;;;;;;5.90;2.37;;;25.60;1.00;;;;;;6254167;22;20466;-82
2022/07/29 09:00:47;;;;;;;8.60;3.30;;;25.70;1.00;;;;;;6256162;22;20408;-84
2022/07/29 09:03:20;;;;;;;9.43;3.37;;;25.60;1.00;;;;;;6257465;22;20455;-85
2022/07/29 09:05:54;;;;;;;6.33;3.03;;;25.60;1.00;;;;;;6257163;22;20470;-83
2022/07/29 09:08:21;;;;;;;8.33;3.40;;;25.80;1.00;;;;;;6254422;22;20430;-84
2022/07/29 09:10:55;;;;;;;11.23;3.37;;;25.90;1.00;;;;;;6256792;22;20451;-80
2022/07/29 09:13:22;;;;;;;6.80;2.63;;;26.00;1.00;;;;;;6249223;22;20793;-79
2022/07/29 09:15:57;;;;;;;6.63;2.60;;;26.10;1.00;;;;;;6242573;22;20399;-79
2022/07/29 09:18:35;;;;;;;7.37;3.27;;;25.90;1.00;;;;;;6253597;22;20461;-82
2022/07/29 09:24:01;;;;;;;8.83;3.23;;;26.20;1.00;;;;;;6254972;22;20412;-83
2022/07/29 09:26:35;;;;;;;6.53;2.77;;;26.30;1.00;;;;;;6252806;22;20436;-81
2022/07/29 09:29:14;;;;;;;8.30;2.83;;;26.40;1.00;;;;;;6253320;22;20400;-81
2022/07/29 09:31:42;;;;;;;10.67;3.50;;;26.50;1.00;;;;;;6255038;22;20435;-77
2022/07/29 09:34:15;;;;;;;10.50;3.17;;;26.70;1.00;;;;;;6252415;22;20526;-78
2022/07/29 09:36:45;;;;;;;10.63;3.13;;;26.90;1.00;;;;;;6255032;22;20421;-79
2022/07/29 09:39:15;;;;;;;9.40;3.10;;;27.40;1.00;;;;;;6252486;22;20439;-81
2022/07/29 09:41:53;;;;;;;9.00;2.83;;;27.80;1.00;;;;;;6252498;22;20416;-80
2022/07/29 09:44:21;;;;;;;6.90;2.10;;;27.90;1.00;;;;;;6252276;22;20416;-81
2022/07/29 09:46:56;;;;;;;8.93;2.70;;;27.80;1.00;;;;;;6253814;22;20440;-80
2022/07/29 09:49:24;;;;;;;6.33;2.93;;;27.70;1.00;;;;;;6251605;22;20427;-81
2022/07/29 09:52:04;;;;;;;9.30;2.50;;;27.50;1.00;;;;;;6250603;22;20416;-78
2022/07/29 09:54:38;;;;;;;8.77;2.47;;;27.60;1.00;;;;;;6249608;22;20534;-79
2022/07/29 09:57:06;;;;;;;7.30;2.57;;;27.50;1.00;;;;;;6249724;22;20424;-80
2022/07/29 09:59:34;;;;;;;8.00;2.70;;;27.40;1.00;;;;;;6250680;22;20416;-81
2022/07/29 10:02:01;;;;;;;11.20;2.40;;;27.50;1.00;;;;;;6252367;22;20923;-79
2022/07/29 10:04:40;;;;;;;9.13;2.80;;;27.80;1.00;;;;;;6250830;22;20444;-78
2022/07/29 10:07:13;;;;;;;11.97;3.17;;;28.10;1.00;;;;;;6252711;22;20627;-80
2022/07/29 10:09:54;;;;;;;7.97;2.60;;;28.20;1.00;;;;;;6250834;22;20436;-81
2022/07/29 10:12:21;;;;;;;6.10;2.30;;;29.30;1.00;;;;;;6255163;22;20424;-82
2022/07/29 10:14:53;;;;;;;7.20;2.70;;;30.90;1.00;;;;;;6255823;22;20855;-82
2022/07/29 10:17:22;;;;;;;5.63;1.90;;;32.20;1.00;;;;;;6255082;22;20466;-82
2022/07/29 10:19:54;;;;;;;8.23;2.30;;;32.90;1.00;;;;;;6255849;22;20471;-82
2022/07/29 10:22:23;;;;;;;6.40;2.33;;;33.50;1.00;;;;;;6257412;22;20411;-82
2022/07/29 10:24:55;;;;;;;8.57;2.60;;;34.00;1.00;;;;;;6257177;22;20388;-81
2022/07/29 10:27:22;;;;;;;7.43;2.57;;;34.90;1.00;;;;;;6229900;22;20884;-83
2022/07/29 10:29:54;;;;;;;6.80;2.37;;;35.00;1.00;;;;;;6260487;22;20439;-84
2022/07/29 10:32:40;;;;;;;5.97;2.27;;;34.90;1.00;;;;;;6256937;22;20511;-81
2022/07/29 10:35:20;;;;;;;5.90;2.17;;;33.90;1.00;;;;;;6257864;22;20475;-82
2022/07/29 10:38:05;;;;;;;5.77;2.20;;;33.10;1.00;;;;;;6255332;22;20530;-80
2022/07/29 10:43:42;;;;;;;8.60;3.53;;;31.50;1.00;;;;;;6154375;22;20504;-82
2022/07/29 10:46:14;;;;;;;7.17;2.33;;;32.00;1.00;;;;;;6256455;22;20424;-82
2022/07/29 10:49:05;;;;;;;5.43;2.70;;;32.70;1.00;;;;;;6257047;22;20424;-82
2022/07/29 10:51:58;;;;;;;6.27;2.47;;;32.70;1.00;;;;;;6255100;22;20667;-82
2022/07/29 10:54:47;;;;;;;7.17;2.30;;;32.30;1.00;;;;;;6256830;22;21694;-84
2022/07/29 10:57:25;;;;;;;5.50;2.47;;;33.20;1.00;;;;;;6255907;22;20391;-82
2022/07/29 11:00:13;;;;;;;5.80;2.23;;;34.50;1.00;;;;;;6253303;22;20455;-82
2022/07/29 11:02:50;;;;;;;7.00;2.90;;;35.30;1.00;;;;;;6254874;22;20459;-83
2022/07/29 11:05:23;;;;;;;4.70;2.17;;;36.20;1.00;;;;;;6254313;22;20494;-81
2022/07/29 11:08:25;;;;;;;6.03;2.43;;;35.50;1.00;;;;;;6255158;22;20424;-79
2022/07/29 11:11:09;;;;;;;6.33;2.50;;;35.50;1.00;;;;;;6253180;22;20448;-81
2022/07/29 11:13:53;;;;;;;4.87;2.63;;;35.90;1.00;;;;;;6201778;22;20407;-81
2022/07/29 11:16:25;;;;;;;10.13;3.60;;;35.00;1.00;;;;;;6253654;22;20384;-80
2022/07/29 11:19:24;;;;;;;5.80;2.67;;;33.80;1.00;;;;;;6255150;22;20825;-83
2022/07/29 11:21:55;;;;;;;8.17;2.87;;;33.40;1.00;;;;;;6253057;22;20411;-83
2022/07/29 11:24:35;;;;;;;8.03;3.97;;;33.40;1.00;;;;;;6236637;22;20958;-80
2022/07/29 11:27:21;;;;;;;7.27;2.80;;;33.10;1.00;;;;;;6241325;22;20412;-82
2022/07/29 11:30:01;;;;;;;6.23;3.20;;;32.20;1.00;;;;;;6256019;22;21262;-81
2022/07/29 11:32:39;;;;;;;7.37;3.00;;;31.60;1.00;;;;;;6252863;22;20615;-80
2022/07/29 11:35:17;;;;;;;7.57;2.87;;;31.70;1.00;;;;;;6254278;22;20424;-83
2022/07/29 11:38:22;;;;;;;6.43;2.97;;;32.10;1.00;;;;;;6252583;22;20453;-84
2022/07/29 11:41:24;;;;;;;6.57;2.40;;;33.40;1.00;;;;;;6250255;22;20461;-83
2022/07/29 11:43:57;;;;;;;7.00;2.97;;;35.40;1.00;;;;;;6254432;22;20378;-81
2022/07/29 11:46:46;;;;;;;5.30;2.63;;;36.10;1.00;;;;;;6252860;22;20428;-85
2022/07/29 11:53:08;;;;;;;6.27;2.73;;;37.70;1.00;;;;;;6236686;22;20389;-87
2022/07/29 11:55:43;;;;;;;6.17;3.13;;;39.20;1.00;;;;;;6199821;22;20424;-84
2022/07/29 11:58:23;;;;;;;7.47;3.77;;;39.80;1.00;;;;;;6225780;23;20615;-84
2022/07/29 12:00:54;;;;;;;5.93;3.40;;;40.30;1.00;;;;;;6224241;23;20479;-83
2022/07/29 12:03:27;;;;;;;7.07;3.57;;;40.10;1.00;;;;;;6219882;23;20425;-81
2022/07/29 12:06:06;;;;;;;5.90;3.00;;;39.90;1.00;;;;;;6209637;23;20372;-83
2022/07/29 12:09:01;;;;;;;6.23;2.73;;;40.40;1.00;;;;;;6190559;23;20436;-82
2022/07/29 12:11:36;;;;;;;5.87;3.20;;;40.30;1.00;;;;;;6207022;22;20413;-85
2022/07/29 12:14:05;;;;;;;8.47;4.00;;;41.20;1.00;;;;;;6220876;23;20427;-83
2022/07/29 12:16:38;;;;;;;7.53;3.77;;;41.30;1.00;;;;;;6222540;23;20443;-81
2022/07/29 12:19:19;;;;;;;7.93;4.80;;;41.10;1.00;;;;;;6221492;23;21043;-82
2022/07/29 12:21:58;;;;;;;7.80;3.33;;;41.10;1.00;;;;;;6222983;23;20574;-82
2022/07/29 12:24:25;;;;;;;6.03;3.80;;;41.10;1.00;;;;;;6222502;23;23389;-83
2022/07/29 12:27:01;;;;;;;6.73;3.57;;;40.90;1.00;;;;;;6210646;23;20412;-83
2022/07/29 12:29:34;;;;;;;7.10;3.20;;;39.70;1.00;;;;;;6227114;23;20483;-82
2022/07/29 12:32:05;;;;;;;6.30;3.60;;;39.90;1.00;;;;;;6223352;23;20475;-84
2022/07/29 12:34:36;;;;;;;5.77;3.30;;;40.60;1.00;;;;;;6223065;23;20448;-81
2022/07/29 12:37:09;;;;;;;5.30;2.73;;;41.30;1.00;;;;;;6219119;22;21023;-82
2022/07/29 12:39:38;;;;;;;6.43;3.50;;;42.10;1.00;;;;;;6206893;23;20555;-82
2022/07/29 12:42:15;;;;;;;7.10;3.93;;;41.90;1.00;;;;;;6221012;23;20636;-83
2022/07/29 12:44:53;;;;;;;10.60;3.47;;;42.50;1.00;;;;;;6223076;23;20479;-82
2022/07/29 12:47:21;;;;;;;10.80;4.50;;;42.40;1.00;;;;;;6225708;23;20407;-84
2022/07/29 12:49:52;;;;;;;7.70;3.17;;;42.60;1.00;;;;;;6214233;22;20472;-83
2022/07/29 12:52:35;;;;;;;5.03;2.77;;;43.20;1.00;;;;;;6223833;23;21299;-85
2022/07/29 12:55:02;;;;;;;6.87;3.10;;;43.20;1.00;;;;;;6226204;23;20421;-83
2022/07/29 12:57:35;;;;;;;5.70;3.47;;;43.50;1.00;;;;;;6222224;23;20460;-82
2022/07/29 13:00:23;;;;;;;7.20;3.37;;;41.70;1.00;;;;;;6222099;23;20440;-83
2022/07/29 13:03:00;;;;;;;5.37;3.30;;;40.00;1.00;;;;;;6227163;23;20419;-84
2022/07/29 13:09:16;;;;;;;5.03;2.97;;;37.70;1.00;;;;;;6217048;23;20419;-86
2022/07/29 13:12:07;;;;;;;9.23;4.13;;;38.40;1.00;;;;;;6207708;23;20412;-84
2022/07/29 13:14:37;;;;;;;7.40;2.87;;;39.60;1.00;;;;;;6214366;23;20424;-82
2022/07/29 13:17:09;;;;;;;5.50;3.40;;;39.80;1.00;;;;;;6222074;22;20801;-82
2022/07/29 13:19:40;;;;;;;7.03;3.20;;;39.50;1.00;;;;;;6213438;23;20454;-83
2022/07/29 13:22:07;;;;;;;5.87;3.50;;;38.30;1.00;;;;;;6221394;23;20508;-83
2022/07/29 13:24:46;;;;;;;5.80;3.37;;;37.50;1.00;;;;;;6226010;23;20377;-83
2022/07/29 13:27:16;;;;;;;6.83;3.90;;;36.00;1.00;;;;;;6226447;22;20421;-84
2022/07/29 13:29:43;;;;;;;5.87;3.73;;;35.50;1.00;;;;;;6228484;23;20508;-85
2022/07/29 13:32:28;;;;;;;6.10;4.00;;;35.40;1.00;;;;;;6211602;23;20460;-84
2022/07/29 13:34:57;;;;;;;13.77;4.27;;;35.60;1.00;;;;;;6226372;22;20393;-83
2022/07/29 13:37:29;;;;;;;7.53;3.80;;;35.80;1.00;;;;;;6227129;22;20491;-86
2022/07/29 13:39:56;;;;;;;5.73;3.90;;;36.40;1.00;;;;;;6226039;23;20465;-83
2022/07/29 13:42:24;;;;;;;7.03;4.27;;;37.90;1.00;;;;;;6224840;23;20405;-85